Impacts TAF Board
For situational awareness. Not to be used for flight planning purposes.
IDs:

KMIA - Miami Intl, FL, US

Issued at 1507 UTC 03 Dec 2021
Updated at 1527 UTC 03 Dec 2021
Potential Impact None Slight Moderate High
Time1453Z 03/16Z 03/17Z 03/18Z 03/19Z 03/20Z 03/21Z 03/22Z 03/23Z 04/00Z 04/01Z 04/02Z 04/03Z 04/04Z>>
Type OBS PRVL PRVL PRVL PRVL PRVL PRVL PRVL PRVL PRVL PRVL PRVL PRVL PRVL
VIS 10 >6 >6 >6 >6 >6 >6 >6 >6 >6 >6 >6 >6 >6
CIG -- -- -- -- -- -- -- -- -- -- -- -- -- --
Cover FEW SCT SCT SCT SCT SCT SCT SCT SCT FEW FEW FEW FEW FEW
FltCat VFR VFR VFR VFR VFR VFR VFR VFR VFR VFR VFR VFR VFR VFR
WX -- -- -- -- -- -- -- -- -- -- -- -- -- --
WDir 30 40 40 40 40 40 40 40 40 VRB VRB VRB VRB VRB
WSpd 5 8 8 8 8 8 8 8 8 2 2 2 2 2
WGst -- -- -- -- -- -- -- -- -- -- -- -- -- --
WSHgt -- -- -- -- -- -- -- -- -- -- -- -- -- --
WSDir -- -- -- -- -- -- -- -- -- -- -- -- -- --
WSSpd -- -- -- -- -- -- -- -- -- -- -- -- -- --
Raw TAF
KMIA 031507Z 0315/0418 04008KT P6SM FEW025 SCT250
  FM040000 VRB02KT P6SM FEW025
  FM041500 11008KT P6SM FEW030


Raw METAR
KMIA 031453Z 03005KT 10SM FEW025 FEW250 23/08 A3014 RMK AO2 SLP205 T02280083 51014 $
KMIA 031353Z VRB04KT 10SM FEW025 FEW250 22/05 A3013 RMK AO2 SLP202 T02170050 $
KMIA 031253Z VRB03KT 10SM FEW025 FEW250 19/08 A3011 RMK AO2 SLP195 T01940083 $

METAR Board
Radar Display
Forecast Discussion
For situational awareness. Not to be used for flight planning purposes.